Oradea, Romania
Current Conditions -  °F | °C
As of 2:00 AM on Friday 28 Nov 2014 (Local Time) from LROD Reporting Station
Moderate Fog Moderate Fog  
Wind Chill: 27°   Ceiling: 100
Heat Index: 32°   Visibility: 0.56mi
Dew Point: 30°   Wind: 5mph
Humidity: 93%   Direction: 90°E
Pressure: 30.12"   Gusts: NA
Location:  47.07°N, 21.92°E
Report Text: LROD 272300Z AUTO 09004KT 0900 FZFG BKN001 M00/M01 Q1020
Loading
Personal Weather Stations






























Interactive Weather Map New forecast layout! Learn more

10-Day Weather Forecast

Advertisements
Track Severe Weather on mobile